createdAt,value
2019-03-03T00:01:01.455Z,100884.66
2019-03-03T00:03:30.846Z,100887.36
2019-03-03T00:05:59.904Z,100889.20
2019-03-03T00:08:29.297Z,100889.36
2019-03-03T00:10:58.350Z,100876.29
2019-03-03T00:13:27.398Z,100877.28
2019-03-03T00:15:57.189Z,100878.33
2019-03-03T00:18:26.262Z,100886.36
2019-03-03T00:20:55.383Z,100883.48
2019-03-03T00:23:24.712Z,100883.67
2019-03-03T00:25:53.889Z,100878.33
2019-03-03T00:28:23.244Z,100878.33
2019-03-03T00:30:52.616Z,100875.46
2019-03-03T00:33:22.025Z,100861.55
2019-03-03T00:35:51.058Z,100858.74
2019-03-03T00:38:34.126Z,100854.21
2019-03-03T00:41:34.413Z,100852.19
2019-03-03T00:44:28.271Z,100848.48
2019-03-03T00:47:34.474Z,100844.67
2019-03-03T00:50:25.244Z,100838.45
2019-03-03T00:52:59.325Z,100829.77
2019-03-03T00:56:05.825Z,100827.25
2019-03-03T00:58:52.747Z,100843.83
2019-03-03T01:01:39.120Z,100842.81
2019-03-03T01:04:36.440Z,100840.16
2019-03-03T01:07:15.266Z,100841.49
2019-03-03T01:09:58.860Z,100851.53
2019-03-03T01:12:50.990Z,100839.97
2019-03-03T01:15:48.011Z,100839.12
2019-03-03T01:18:33.701Z,100836.09
2019-03-03T01:21:32.306Z,100824.86
2019-03-03T01:24:15.870Z,100813.16
2019-03-03T01:26:44.946Z,100815.00
2019-03-03T01:29:13.984Z,100816.34
2019-03-03T01:31:43.731Z,100821.71
2019-03-03T01:34:12.750Z,100824.86
2019-03-03T01:36:42.260Z,100820.02
2019-03-03T01:39:11.788Z,100826.39
2019-03-03T01:41:41.136Z,100821.86
2019-03-03T01:44:10.679Z,100813.30
2019-03-03T01:46:40.016Z,100818.34
2019-03-03T01:49:09.058Z,100820.66
2019-03-03T01:51:38.146Z,100812.98
2019-03-03T01:54:07.600Z,100812.69
2019-03-03T01:56:36.606Z,100810.64
2019-03-03T01:59:05.664Z,100797.23
2019-03-03T02:01:35.091Z,100797.24
2019-03-03T02:04:04.097Z,100795.75
2019-03-03T02:06:33.508Z,100797.56
2019-03-03T02:09:02.527Z,100807.63
2019-03-03T02:11:31.828Z,100794.55
2019-03-03T02:14:00.834Z,100785.34
2019-03-03T02:16:30.014Z,100794.89
2019-03-03T02:18:59.055Z,100793.92
2019-03-03T02:21:28.069Z,100793.20
2019-03-03T02:23:57.148Z,100787.72
2019-03-03T02:26:26.504Z,100778.80
2019-03-03T02:28:55.606Z,100773.30
2019-03-03T02:31:24.737Z,100772.47
2019-03-03T02:33:54.156Z,100768.47
2019-03-03T02:36:23.279Z,100767.25
2019-03-03T02:38:52.662Z,100762.39
2019-03-03T02:41:21.703Z,100755.31
2019-03-03T02:43:50.995Z,100753.00
2019-03-03T02:46:20.482Z,100757.75
2019-03-03T02:48:49.535Z,100760.89
2019-03-03T02:51:19.208Z,100743.66
2019-03-03T02:53:48.271Z,100744.97
2019-03-03T02:56:17.302Z,100745.02
2019-03-03T02:58:46.310Z,100738.92
2019-03-03T03:01:34.423Z,100751.67
2019-03-03T03:04:03.465Z,100745.77
2019-03-03T03:06:50.384Z,100724.19
2019-03-03T03:09:22.516Z,100732.54
2019-03-03T03:12:09.412Z,100725.52
2019-03-03T03:15:00.658Z,100727.91
2019-03-03T03:17:47.453Z,100718.19
2019-03-03T03:20:36.942Z,100709.81
2019-03-03T03:23:11.500Z,100693.05
2019-03-03T03:25:46.895Z,100693.70
2019-03-03T03:28:40.997Z,100687.63
2019-03-03T03:31:20.865Z,100682.95
2019-03-03T03:33:55.345Z,100691.97
2019-03-03T03:36:41.138Z,100690.71
2019-03-03T03:39:25.433Z,100697.84
2019-03-03T03:42:16.167Z,100679.45
2019-03-03T03:45:03.140Z,100676.20
2019-03-03T03:48:00.220Z,100669.66
2019-03-03T03:50:42.991Z,100672.83
2019-03-03T03:53:24.681Z,100672.89
2019-03-03T03:56:18.525Z,100671.92
2019-03-03T03:59:08.737Z,100667.16
2019-03-03T04:01:46.227Z,100660.48
2019-03-03T04:04:34.268Z,100667.95
2019-03-03T04:07:28.069Z,100664.44
2019-03-03T04:10:19.483Z,100672.34
2019-03-03T04:13:07.496Z,100667.42
2019-03-03T04:15:47.955Z,100666.43
2019-03-03T04:18:21.273Z,100658.08
2019-03-03T04:21:08.321Z,100653.23
2019-03-03T04:24:02.343Z,100652.10
2019-03-03T04:26:53.173Z,100655.74
2019-03-03T04:29:50.560Z,100649.73
2019-03-03T04:32:41.333Z,100650.83
2019-03-03T04:35:24.482Z,100647.53
2019-03-03T04:38:18.515Z,100646.49
2019-03-03T04:40:59.217Z,100646.19
2019-03-03T04:43:33.521Z,100649.18
2019-03-03T04:46:25.253Z,100637.33
2019-03-03T04:49:05.648Z,100642.00
2019-03-03T04:51:52.319Z,100639.35
2019-03-03T04:54:38.418Z,100635.47
2019-03-03T04:57:28.299Z,100630.70
2019-03-03T05:00:08.224Z,100635.30
2019-03-03T05:02:56.821Z,100633.64
2019-03-03T05:05:47.863Z,100637.33
2019-03-03T05:08:24.209Z,100633.99
2019-03-03T05:11:12.215Z,100630.59
2019-03-03T05:13:54.543Z,100625.53
2019-03-03T05:16:36.797Z,100625.34
2019-03-03T05:19:09.638Z,100631.00
2019-03-03T05:21:39.043Z,100627.02
2019-03-03T05:24:08.122Z,100628.33
2019-03-03T05:26:37.442Z,100622.14
2019-03-03T05:29:06.827Z,100627.43
2019-03-03T05:31:35.870Z,100619.87
2019-03-03T05:34:04.917Z,100619.66
2019-03-03T05:36:33.969Z,100618.70
2019-03-03T05:39:04.462Z,100609.98
2019-03-03T05:41:33.506Z,100620.15
2019-03-03T05:44:02.571Z,100611.62
2019-03-03T05:46:31.795Z,100605.75
2019-03-03T05:49:00.813Z,100604.85
2019-03-03T05:51:30.175Z,100601.38
2019-03-03T05:53:59.578Z,100604.38
2019-03-03T05:56:28.626Z,100593.05
2019-03-03T05:58:57.663Z,100589.02
2019-03-03T06:01:26.706Z,100596.81
2019-03-03T06:03:56.016Z,100588.90
2019-03-03T06:06:25.523Z,100592.06
2019-03-03T06:08:54.609Z,100597.72
2019-03-03T06:11:23.953Z,100586.66
2019-03-03T06:13:52.965Z,100591.48
2019-03-03T06:16:22.053Z,100588.19
2019-03-03T06:18:51.071Z,100587.30
2019-03-03T06:21:20.114Z,100592.45
2019-03-03T06:23:49.169Z,100592.48
2019-03-03T06:26:18.571Z,100585.20
2019-03-03T06:28:47.659Z,100583.52
2019-03-03T06:31:16.750Z,100581.80
2019-03-03T06:33:46.461Z,100577.82
2019-03-03T06:36:15.685Z,100581.77
2019-03-03T06:38:45.003Z,100568.70
2019-03-03T06:41:14.075Z,100573.72
2019-03-03T06:43:43.413Z,100566.33
2019-03-03T06:46:12.711Z,100559.75
2019-03-03T06:48:41.775Z,100559.84
2019-03-03T06:51:10.886Z,100571.61
2019-03-03T06:53:40.307Z,100562.22
2019-03-03T06:56:09.357Z,100560.62
2019-03-03T06:58:38.381Z,100567.24
2019-03-03T07:01:07.430Z,100565.60
2019-03-03T07:03:36.462Z,100568.84
2019-03-03T07:06:05.541Z,100563.59
2019-03-03T07:08:34.578Z,100561.74
2019-03-03T07:11:04.615Z,100571.34
2019-03-03T07:13:33.655Z,100573.42
2019-03-03T07:16:02.720Z,100579.84
2019-03-03T07:18:32.089Z,100576.09
2019-03-03T07:21:01.272Z,100578.39
2019-03-03T07:23:30.374Z,100574.77
2019-03-03T07:25:59.883Z,100581.03
2019-03-03T07:28:29.393Z,100584.05
2019-03-03T07:30:58.439Z,100585.02
2019-03-03T07:33:35.477Z,100587.30
2019-03-03T07:36:04.650Z,100589.33
2019-03-03T07:38:33.705Z,100583.97
2019-03-03T07:41:02.781Z,100585.10
2019-03-03T07:43:31.874Z,100586.27
2019-03-03T07:46:00.951Z,100587.65
2019-03-03T07:48:29.989Z,100590.41
2019-03-03T07:50:59.005Z,100585.52
2019-03-03T07:53:28.397Z,100590.19
2019-03-03T07:55:57.447Z,100594.52
2019-03-03T07:58:27.288Z,100591.14
2019-03-03T08:00:56.345Z,100596.98
2019-03-03T08:03:25.455Z,100597.07
2019-03-03T08:05:54.513Z,100599.58
2019-03-03T08:08:23.585Z,100600.09
2019-03-03T08:10:52.653Z,100601.95
2019-03-03T08:13:21.813Z,100601.02
2019-03-03T08:15:50.856Z,100606.72
2019-03-03T08:18:20.327Z,100609.70
2019-03-03T08:20:49.805Z,100617.14
2019-03-03T08:23:18.898Z,100607.49
2019-03-03T08:25:48.011Z,100621.72
2019-03-03T08:28:17.118Z,100616.70
2019-03-03T08:30:46.139Z,100621.84
2019-03-03T08:33:15.399Z,100622.54
2019-03-03T08:35:44.623Z,100622.54
2019-03-03T08:38:13.945Z,100622.55
2019-03-03T08:40:43.408Z,100617.88
2019-03-03T08:43:31.467Z,100615.94
2019-03-03T08:46:18.374Z,100619.78
2019-03-03T08:49:01.589Z,100615.41
2019-03-03T08:52:01.959Z,100609.05
2019-03-03T08:54:49.078Z,100603.90
2019-03-03T08:57:35.949Z,100598.88
2019-03-03T09:00:37.362Z,100583.78
2019-03-03T09:03:24.556Z,100578.47
2019-03-03T09:06:11.290Z,100594.91
2019-03-03T09:09:29.067Z,100586.16
2019-03-03T09:12:29.530Z,100582.45
2019-03-03T09:15:11.237Z,100575.05
2019-03-03T09:17:57.877Z,100588.36
2019-03-03T09:20:52.027Z,100572.58
2019-03-03T09:23:39.313Z,100584.67
2019-03-03T09:26:29.103Z,100577.25
2019-03-03T09:29:16.725Z,100577.50
2019-03-03T09:32:11.027Z,100568.85
2019-03-03T09:35:06.527Z,100564.14
2019-03-03T09:38:00.561Z,100575.45
2019-03-03T09:41:00.526Z,100568.68
2019-03-03T09:43:44.567Z,100570.31
2019-03-03T09:46:23.324Z,100569.51
2019-03-03T09:49:11.984Z,100567.68
2019-03-03T09:51:58.828Z,100562.73
2019-03-03T09:54:36.613Z,100553.41
2019-03-03T09:57:15.471Z,100559.80
2019-03-03T10:00:02.912Z,100549.59
2019-03-03T10:02:47.602Z,100549.59
2019-03-03T10:05:35.858Z,100557.48
2019-03-03T10:08:27.055Z,100553.73
2019-03-03T10:11:15.797Z,100547.67
2019-03-03T10:13:49.782Z,100556.19
2019-03-03T10:16:32.824Z,100556.19
2019-03-03T10:19:09.796Z,100549.63
2019-03-03T10:21:54.063Z,100545.84
2019-03-03T10:24:42.160Z,100547.23
2019-03-03T10:27:20.911Z,100525.47
2019-03-03T10:29:57.058Z,100530.84
2019-03-03T10:32:45.067Z,100524.43
2019-03-03T10:35:34.050Z,100524.43
2019-03-03T10:38:11.053Z,100524.55
2019-03-03T10:41:02.076Z,100519.03
2019-03-03T10:43:49.737Z,100519.03
2019-03-03T10:46:56.363Z,100514.25
2019-03-03T10:49:48.859Z,100514.25
2019-03-03T10:52:33.562Z,100525.27
2019-03-03T10:55:24.342Z,100508.39
2019-03-03T10:58:07.242Z,100505.13
2019-03-03T11:00:54.718Z,100484.41
2019-03-03T11:03:42.722Z,100501.67
2019-03-03T11:06:46.610Z,100497.81
2019-03-03T11:09:41.826Z,100500.17
2019-03-03T11:12:23.991Z,100504.87
2019-03-03T11:15:02.608Z,100484.28
2019-03-03T11:17:49.853Z,100484.28
2019-03-03T11:20:40.715Z,100494.97
2019-03-03T11:23:28.657Z,100485.69
2019-03-03T11:26:25.935Z,100484.59
2019-03-03T11:29:07.847Z,100491.33
2019-03-03T11:31:50.271Z,100481.28
2019-03-03T11:34:29.816Z,100481.28
2019-03-03T11:37:06.195Z,100481.09
2019-03-03T11:40:01.867Z,100476.62
2019-03-03T11:42:50.131Z,100468.66
2019-03-03T11:45:34.859Z,100468.66
2019-03-03T11:48:19.965Z,100465.68
2019-03-03T11:51:08.373Z,100464.59
2019-03-03T11:54:05.689Z,100464.71
2019-03-03T11:56:56.602Z,100455.38
2019-03-03T11:59:44.632Z,100445.70
2019-03-03T12:02:38.549Z,100455.49
2019-03-03T12:05:36.969Z,100451.55
2019-03-03T12:08:23.961Z,100451.55
2019-03-03T12:11:11.972Z,100450.09
2019-03-03T12:14:06.143Z,100439.23
2019-03-03T12:16:54.211Z,100422.86
2019-03-03T12:19:38.041Z,100434.07
2019-03-03T12:22:14.579Z,100421.18
2019-03-03T12:24:50.808Z,100421.18
2019-03-03T12:27:51.064Z,100420.42
2019-03-03T12:30:48.386Z,100403.78
2019-03-03T12:33:42.540Z,100400.96
2019-03-03T12:36:34.077Z,100397.58
2019-03-03T12:39:11.457Z,100397.58
2019-03-03T12:42:03.747Z,100426.29
2019-03-03T12:44:52.161Z,100408.31
2019-03-03T12:47:40.514Z,100386.96
2019-03-03T12:50:40.584Z,100382.59
2019-03-03T12:53:27.927Z,100378.64
2019-03-03T12:56:12.833Z,100383.23
2019-03-03T12:58:57.411Z,100368.53
2019-03-03T13:01:44.345Z,100377.38
2019-03-03T13:04:24.467Z,100365.60
2019-03-03T13:07:12.493Z,100344.23
2019-03-03T13:09:49.026Z,100364.64
2019-03-03T13:12:40.102Z,100354.78
2019-03-03T13:15:26.716Z,100348.27
2019-03-03T13:18:09.375Z,100331.28
2019-03-03T13:20:56.298Z,100333.52
2019-03-03T13:23:44.679Z,100328.40
2019-03-03T13:26:35.536Z,100327.34
2019-03-03T13:29:39.369Z,100320.92
2019-03-03T13:32:15.209Z,100319.17
2019-03-03T13:35:02.049Z,100310.57
2019-03-03T13:38:05.588Z,100306.80
2019-03-03T13:41:05.420Z,100301.94
2019-03-03T13:43:34.493Z,100299.05
2019-03-03T13:46:03.679Z,100301.13
2019-03-03T13:48:32.761Z,100292.82
2019-03-03T13:51:01.906Z,100292.00
2019-03-03T13:53:30.934Z,100293.94
2019-03-03T13:56:00.358Z,100289.13
2019-03-03T13:58:29.429Z,100289.73
2019-03-03T14:00:58.608Z,100286.81
2019-03-03T14:03:27.696Z,100273.48
2019-03-03T14:05:56.857Z,100263.66
2019-03-03T14:08:26.266Z,100255.98
2019-03-03T14:10:55.426Z,100246.67
2019-03-03T14:13:24.653Z,100244.38
2019-03-03T14:15:53.797Z,100240.87
2019-03-03T14:18:22.850Z,100236.96
2019-03-03T14:20:51.938Z,100229.29
2019-03-03T14:23:20.988Z,100235.73
2019-03-03T14:25:50.011Z,100218.52
2019-03-03T14:28:19.074Z,100229.29
2019-03-03T14:30:48.192Z,100207.88
2019-03-03T14:33:17.198Z,100217.09
2019-03-03T14:35:46.289Z,100198.23
2019-03-03T14:38:15.348Z,100195.33
2019-03-03T14:40:44.419Z,100203.43
2019-03-03T14:43:13.495Z,100188.08
2019-03-03T14:45:43.674Z,100185.61
2019-03-03T14:48:13.200Z,100186.84
2019-03-03T14:50:42.609Z,100174.74
2019-03-03T14:53:11.706Z,100159.09
2019-03-03T14:55:40.739Z,100170.88
2019-03-03T14:58:10.136Z,100154.52
2019-03-03T15:00:39.183Z,100158.77
2019-03-03T15:03:08.920Z,100137.55
2019-03-03T15:05:37.996Z,100146.36
2019-03-03T15:08:07.110Z,100146.54
2019-03-03T15:10:36.072Z,100131.42
2019-03-03T15:13:05.147Z,100136.31
2019-03-03T15:15:35.103Z,100138.57
2019-03-03T15:18:04.183Z,100140.73
2019-03-03T15:20:33.400Z,100126.13
2019-03-03T15:23:02.698Z,100117.14
2019-03-03T15:25:31.719Z,100112.25
2019-03-03T15:28:01.066Z,100102.01
2019-03-03T15:30:30.496Z,100095.07
2019-03-03T15:32:59.580Z,100095.89
2019-03-03T15:35:28.612Z,100107.08
2019-03-03T15:37:57.964Z,100074.14
2019-03-03T15:40:27.025Z,100068.58
2019-03-03T15:42:56.054Z,100062.88
2019-03-03T15:45:25.567Z,100055.53
2019-03-03T15:47:54.581Z,100043.00
2019-03-03T15:50:23.879Z,100039.29
2019-03-03T15:52:53.112Z,100037.30
2019-03-03T15:55:22.636Z,100031.91
2019-03-03T15:57:51.727Z,100033.46
2019-03-03T16:00:26.176Z,100027.88
2019-03-03T16:02:55.519Z,100021.14
2019-03-03T16:05:24.591Z,100017.22
2019-03-03T16:07:53.898Z,100011.63
2019-03-03T16:10:24.090Z,100014.61
2019-03-03T16:12:53.522Z,99995.97
2019-03-03T16:15:22.680Z,100002.01
2019-03-03T16:17:51.710Z,99990.75
2019-03-03T16:20:20.788Z,99988.67
2019-03-03T16:22:49.828Z,99994.14
2019-03-03T16:25:20.039Z,99996.25
2019-03-03T16:27:49.101Z,99978.64
2019-03-03T16:30:19.093Z,99976.16
2019-03-03T16:32:48.967Z,99964.45
2019-03-03T16:35:18.525Z,99980.19
2019-03-03T16:37:47.865Z,99961.44
2019-03-03T16:40:21.830Z,99970.57
2019-03-03T16:42:50.946Z,99955.06
2019-03-03T16:45:20.554Z,99963.69
2019-03-03T16:47:49.890Z,99956.02
2019-03-03T16:50:19.516Z,99960.96
2019-03-03T16:52:48.738Z,99957.27
2019-03-03T16:55:18.220Z,99944.85
2019-03-03T16:57:47.625Z,99927.52
2019-03-03T17:00:18.668Z,99937.52
2019-03-03T17:02:48.010Z,99921.00
2019-03-03T17:05:18.018Z,99925.94
2019-03-03T17:07:47.400Z,99929.34
2019-03-03T17:10:16.414Z,99929.34
2019-03-03T17:12:45.580Z,99927.41
2019-03-03T17:15:17.002Z,99915.73
2019-03-03T17:17:46.516Z,99915.41
2019-03-03T17:20:16.314Z,99912.43
2019-03-03T17:22:45.382Z,99903.64
2019-03-03T17:25:19.386Z,99907.37
2019-03-03T17:27:48.440Z,99893.95
2019-03-03T17:30:19.749Z,99893.95
2019-03-03T17:32:48.787Z,99875.12
2019-03-03T17:35:17.858Z,99877.09
2019-03-03T17:37:46.914Z,99882.16
2019-03-03T17:40:17.808Z,99884.01
2019-03-03T17:42:47.776Z,99876.78
2019-03-03T17:45:18.578Z,99859.72
2019-03-03T17:47:48.232Z,99858.78
2019-03-03T17:50:18.659Z,99844.33
2019-03-03T17:52:47.779Z,99850.64
2019-03-03T17:55:17.318Z,99848.48
2019-03-03T17:57:46.572Z,99846.49
2019-03-03T18:00:18.294Z,99846.49
2019-03-03T18:02:47.688Z,99833.91
2019-03-03T18:05:18.065Z,99869.03
2019-03-03T18:07:47.238Z,99831.91
2019-03-03T18:10:16.773Z,99826.13
2019-03-03T18:12:46.054Z,99831.45
2019-03-03T18:15:16.200Z,99839.53
2019-03-03T18:17:45.195Z,99815.31
2019-03-03T18:20:14.357Z,99836.55
2019-03-03T18:22:44.312Z,99834.67
2019-03-03T18:25:14.306Z,99809.33
2019-03-03T18:27:43.328Z,99825.27
2019-03-03T18:30:18.439Z,99798.82
2019-03-03T18:32:47.792Z,99799.39
2019-03-03T18:35:17.077Z,99797.77
2019-03-03T18:37:46.240Z,99793.84
2019-03-03T18:40:17.704Z,99800.33
2019-03-03T18:42:47.028Z,99779.76
2019-03-03T18:45:16.522Z,99788.88
2019-03-03T18:47:45.873Z,99794.14
2019-03-03T18:50:16.704Z,99786.89
2019-03-03T18:52:46.929Z,99786.89
2019-03-03T18:55:15.966Z,99762.73
2019-03-03T18:57:44.992Z,99764.89
2019-03-03T19:00:16.708Z,99754.53
2019-03-03T19:02:46.329Z,99753.72
2019-03-03T19:05:17.694Z,99738.41
2019-03-03T19:07:47.075Z,99733.44
2019-03-03T19:10:16.858Z,99735.50
2019-03-03T19:12:46.232Z,99725.03
2019-03-03T19:15:16.401Z,99726.83
2019-03-03T19:17:45.442Z,99731.47
2019-03-03T19:20:15.745Z,99724.75
2019-03-03T19:22:44.824Z,99737.58
2019-03-03T19:25:14.498Z,99743.70
2019-03-03T19:27:43.588Z,99734.36
2019-03-03T19:30:18.083Z,99709.34
2019-03-03T19:32:48.809Z,99701.38
2019-03-03T19:35:18.123Z,99697.05
2019-03-03T19:37:47.172Z,99712.87
2019-03-03T19:40:16.214Z,99692.06
2019-03-03T19:42:46.008Z,99700.52
2019-03-03T19:45:18.442Z,99698.44
2019-03-03T19:47:47.800Z,99701.34
2019-03-03T19:50:17.084Z,99668.56
2019-03-03T19:52:46.150Z,99673.05
2019-03-03T19:55:15.805Z,99679.22
2019-03-03T19:57:44.881Z,99678.34
2019-03-03T20:00:17.956Z,99677.00
2019-03-03T20:02:47.449Z,99680.20
2019-03-03T20:05:16.651Z,99682.89
2019-03-03T20:07:45.710Z,99684.78
2019-03-03T20:10:14.955Z,99656.30
2019-03-03T20:12:44.051Z,99667.91
2019-03-03T20:15:13.314Z,99665.32
2019-03-03T20:17:42.663Z,99641.67
2019-03-03T20:20:13.272Z,99629.49
2019-03-03T20:22:42.298Z,99647.97
2019-03-03T20:25:11.774Z,99644.67
2019-03-03T20:27:41.393Z,99641.06
2019-03-03T20:30:13.142Z,99629.31
2019-03-03T20:32:42.383Z,99629.66
2019-03-03T20:35:11.870Z,99636.03
2019-03-03T20:37:40.890Z,99625.43
2019-03-03T20:40:12.070Z,99618.99
2019-03-03T20:42:41.134Z,99604.94
2019-03-03T20:45:13.148Z,99606.71
2019-03-03T20:47:42.571Z,99599.56
2019-03-03T20:50:14.228Z,99572.95
2019-03-03T20:52:43.644Z,99559.75
2019-03-03T20:55:14.459Z,99520.94
2019-03-03T20:57:44.033Z,99508.06
2019-03-03T21:00:15.917Z,99540.15
2019-03-03T21:02:45.064Z,99552.37
2019-03-03T21:05:14.147Z,99525.78
2019-03-03T21:07:50.914Z,99525.83
2019-03-03T21:10:15.879Z,99548.99
2019-03-03T21:12:45.496Z,99548.99
2019-03-03T21:15:14.835Z,99542.41
2019-03-03T21:17:43.857Z,99515.70
2019-03-03T21:20:14.173Z,99501.20
2019-03-03T21:22:43.526Z,99509.69
2019-03-03T21:25:12.914Z,99509.69
2019-03-03T21:27:42.529Z,99513.44
2019-03-03T21:30:13.981Z,99505.20
2019-03-03T21:32:43.034Z,99491.55
2019-03-03T21:35:12.095Z,99478.74
2019-03-03T21:37:41.443Z,99504.17
2019-03-03T21:40:11.809Z,99497.63
2019-03-03T21:42:40.886Z,99488.69
2019-03-03T21:45:10.966Z,99482.28
2019-03-03T21:47:40.590Z,99463.11
2019-03-03T21:50:11.831Z,99467.89
2019-03-03T21:52:40.890Z,99458.94
2019-03-03T21:55:10.468Z,99439.28
2019-03-03T21:57:39.527Z,99448.37
2019-03-03T22:00:28.091Z,99461.80
2019-03-03T22:02:57.526Z,99461.80
2019-03-03T22:05:26.553Z,99449.42
2019-03-03T22:07:55.760Z,99462.41
2019-03-03T22:10:31.211Z,99464.28
2019-03-03T22:13:01.910Z,99464.28
2019-03-03T22:15:31.208Z,99464.81
2019-03-03T22:18:00.519Z,99451.38
2019-03-03T22:20:29.574Z,99451.38
2019-03-03T22:22:58.762Z,99436.20
2019-03-03T22:25:28.053Z,99428.03
2019-03-03T22:27:57.112Z,99427.33
2019-03-03T22:30:26.210Z,99455.83
2019-03-03T22:32:55.507Z,99462.13
2019-03-03T22:35:24.559Z,99462.13
2019-03-03T22:37:53.581Z,99450.45
2019-03-03T22:40:23.333Z,99394.93
2019-03-03T22:42:52.434Z,99413.05
2019-03-03T22:45:21.446Z,99434.28
2019-03-03T22:47:50.503Z,99435.73
2019-03-03T22:50:19.817Z,99426.12
2019-03-03T22:52:48.865Z,99416.92
2019-03-03T22:55:18.031Z,99401.22
2019-03-03T22:57:47.101Z,99421.51
2019-03-03T23:00:49.263Z,99396.64
2019-03-03T23:03:21.828Z,99384.66
2019-03-03T23:06:06.966Z,99384.66
2019-03-03T23:08:48.191Z,99391.27
2019-03-03T23:11:39.086Z,99366.99
2019-03-03T23:14:21.531Z,99344.34
2019-03-03T23:17:36.665Z,99370.20
2019-03-03T23:20:16.373Z,99343.72
2019-03-03T23:23:30.875Z,99319.24
2019-03-03T23:26:00.268Z,99286.67
2019-03-03T23:28:29.352Z,99330.91
2019-03-03T23:30:58.783Z,99334.12
2019-03-03T23:33:28.147Z,99326.39
2019-03-03T23:35:57.814Z,99319.12
2019-03-03T23:38:27.198Z,99316.44
2019-03-03T23:40:56.391Z,99329.56
2019-03-03T23:43:25.837Z,99304.34
2019-03-03T23:45:54.871Z,99309.72
2019-03-03T23:48:24.304Z,99279.56
2019-03-03T23:50:53.903Z,99287.03
2019-03-03T23:53:23.556Z,99288.61
2019-03-03T23:55:52.633Z,99291.34
2019-03-03T23:58:21.637Z,99295.53
